Time;durP1;ratioP1;P1;durP2;ratioP2;P2;SDS_P1;SDS_P2;PMS_P1;PMS_P2;Temp;Humidity;BMP_temperature;BMP_pressure;BME280_temperature;BME280_humidity;BME280_pressure;Samples;Min_cycle;Max_cycle;Signal;HPM_P1;HPM_P2
2021/06/10 00:00:31;;;;;;;8.30;5.50;;;17.60;35.20;;;;;;5029892;28;20439;-78
2021/06/10 00:02:57;;;;;;;8.75;5.70;;;17.60;36.30;;;;;;5030315;28;20400;-79
2021/06/10 00:05:22;;;;;;;11.00;5.97;;;17.50;37.00;;;;;;5032090;28;20432;-78
2021/06/10 00:07:48;;;;;;;12.53;5.50;;;17.50;37.20;;;;;;5031166;28;20400;-78
2021/06/10 00:10:16;;;;;;;9.90;5.77;;;17.50;38.10;;;;;;5027356;28;20476;-79
2021/06/10 00:12:42;;;;;;;7.25;5.40;;;17.40;38.40;;;;;;5023954;28;20471;-79
2021/06/10 00:15:11;;;;;;;7.50;5.35;;;17.40;39.10;;;;;;5021795;28;20393;-80
2021/06/10 00:17:37;;;;;;;7.32;5.40;;;17.30;40.00;;;;;;5027742;28;20423;-79
2021/06/10 00:20:05;;;;;;;6.30;5.60;;;17.30;41.20;;;;;;5026475;28;20393;-78
2021/06/10 00:22:31;;;;;;;7.03;5.95;;;17.60;40.30;;;;;;5007711;28;20446;-80
2021/06/10 00:24:56;;;;;;;9.40;5.95;;;17.70;39.00;;;;;;5003835;28;20401;-79
2021/06/10 00:27:22;;;;;;;8.10;5.40;;;17.60;39.10;;;;;;5026554;28;20457;-78
2021/06/10 00:29:48;;;;;;;7.97;6.57;;;17.50;39.60;;;;;;5028238;28;20396;-77
2021/06/10 00:32:15;;;;;;;8.13;5.80;;;17.70;39.30;;;;;;5026344;28;20405;-77
2021/06/10 00:34:41;;;;;;;7.55;6.65;;;17.40;40.10;;;;;;5009285;28;20797;-79
2021/06/10 00:37:08;;;;;;;6.95;6.25;;;17.20;40.40;;;;;;5007418;28;20388;-78
2021/06/10 00:39:34;;;;;;;9.90;6.10;;;17.10;41.80;;;;;;5004321;28;20497;-80
2021/06/10 00:41:59;;;;;;;7.22;5.90;;;17.00;43.10;;;;;;5002479;28;20422;-79
2021/06/10 00:44:25;;;;;;;9.20;6.45;;;17.00;44.80;;;;;;5000227;28;20396;-78
2021/06/10 00:46:50;;;;;;;7.63;5.80;;;17.10;45.60;;;;;;5026277;28;20439;-81
2021/06/10 00:49:16;;;;;;;8.97;5.43;;;17.20;45.10;;;;;;5029729;28;20433;-78
2021/06/10 00:51:42;;;;;;;8.07;5.57;;;17.30;44.80;;;;;;5028670;28;20431;-81
2021/06/10 00:54:08;;;;;;;9.68;6.05;;;17.30;44.20;;;;;;5022129;28;20401;-79
2021/06/10 00:56:34;;;;;;;9.25;5.47;;;17.40;43.40;;;;;;5027001;28;20393;-77
2021/06/10 00:59:00;;;;;;;8.73;6.00;;;17.40;43.40;;;;;;5010568;28;20396;-78
2021/06/10 01:01:26;;;;;;;6.60;5.32;;;17.40;42.90;;;;;;5021690;28;20452;-80
2021/06/10 01:03:53;;;;;;;9.57;6.00;;;17.30;43.10;;;;;;5011618;28;20408;-78
2021/06/10 01:06:50;;;;;;;10.20;5.90;;;17.20;43.80;;;;;;5018422;28;20476;-77
2021/06/10 01:09:22;;;;;;;11.68;6.35;;;17.10;44.00;;;;;;5009806;28;20398;-77
2021/06/10 01:12:02;;;;;;;8.32;6.10;;;17.00;44.00;;;;;;4999908;28;20417;-80
2021/06/10 01:14:30;;;;;;;9.60;6.50;;;16.90;45.70;;;;;;5022689;28;20475;-82
2021/06/10 01:16:58;;;;;;;11.98;7.00;;;17.00;46.90;;;;;;5025321;28;20504;-80
2021/06/10 01:19:39;;;;;;;8.68;5.97;;;16.90;47.80;;;;;;5025049;28;20412;-80
2021/06/10 01:22:25;;;;;;;8.57;6.23;;;16.90;47.90;;;;;;5022327;28;20804;-82
2021/06/10 01:25:14;;;;;;;8.70;5.67;;;16.80;47.90;;;;;;5021838;28;20407;-82
2021/06/10 01:27:44;;;;;;;9.15;5.40;;;16.80;47.60;;;;;;5022958;28;20420;-82
2021/06/10 01:30:21;;;;;;;7.20;5.50;;;16.80;47.10;;;;;;5008552;28;20463;-80
2021/06/10 01:32:54;;;;;;;8.13;5.20;;;16.70;47.80;;;;;;5007646;28;20420;-83
2021/06/10 01:35:23;;;;;;;12.10;6.40;;;16.70;47.30;;;;;;5024318;28;20423;-80
2021/06/10 01:37:50;;;;;;;13.90;5.67;;;16.70;47.20;;;;;;5023897;28;20389;-80
2021/06/10 01:40:18;;;;;;;9.80;6.00;;;16.70;45.50;;;;;;5013007;28;20397;-83
2021/06/10 01:42:44;;;;;;;10.77;5.70;;;16.70;45.90;;;;;;5011438;28;20403;-79
2021/06/10 01:45:12;;;;;;;8.80;5.57;;;16.70;46.20;;;;;;5007191;28;20394;-82
2021/06/10 01:47:40;;;;;;;9.45;5.93;;;16.70;46.00;;;;;;5009479;28;20394;-84
2021/06/10 01:50:09;;;;;;;12.38;6.25;;;16.70;45.90;;;;;;5002383;28;20396;-79
2021/06/10 01:52:36;;;;;;;9.70;6.70;;;16.80;45.10;;;;;;5031043;28;20415;-78
2021/06/10 01:55:05;;;;;;;6.57;5.35;;;16.80;44.80;;;;;;5027282;28;20396;-83
2021/06/10 01:57:31;;;;;;;10.57;6.65;;;16.80;44.60;;;;;;5010209;28;20431;-79
2021/06/10 01:59:58;;;;;;;9.10;5.90;;;16.90;44.00;;;;;;5027543;28;20412;-83
2021/06/10 02:02:24;;;;;;;9.73;6.10;;;17.00;42.90;;;;;;5026835;28;20397;-82
2021/06/10 02:04:50;;;;;;;9.47;6.27;;;17.10;42.80;;;;;;5025930;28;20403;-83
2021/06/10 02:07:18;;;;;;;8.43;6.30;;;17.00;44.40;;;;;;5025394;28;20388;-82
2021/06/10 02:09:44;;;;;;;12.55;6.18;;;16.90;45.50;;;;;;5029842;28;20392;-79
2021/06/10 02:12:11;;;;;;;9.57;5.80;;;16.60;46.20;;;;;;5033100;28;20404;-78
2021/06/10 02:14:39;;;;;;;7.60;5.90;;;16.50;46.00;;;;;;5036467;28;20472;-80
2021/06/10 02:17:05;;;;;;;8.27;5.47;;;16.40;46.40;;;;;;5033381;28;20396;-80
2021/06/10 02:19:31;;;;;;;7.95;6.03;;;16.30;46.90;;;;;;5029045;28;20408;-78
2021/06/10 02:21:56;;;;;;;8.10;5.30;;;16.20;46.80;;;;;;5025433;28;20389;-82
2021/06/10 02:24:22;;;;;;;8.83;6.30;;;16.20;47.00;;;;;;5023593;28;20400;-82
2021/06/10 02:26:48;;;;;;;9.97;6.27;;;16.40;46.20;;;;;;5026524;28;20446;-80
2021/06/10 02:29:13;;;;;;;10.20;6.20;;;16.50;45.50;;;;;;5025356;28;20409;-80
2021/06/10 02:31:39;;;;;;;8.95;5.80;;;16.40;46.20;;;;;;5023807;28;20377;-79
2021/06/10 02:34:06;;;;;;;12.13;5.43;;;16.20;47.30;;;;;;5028729;28;20391;-83
2021/06/10 02:36:33;;;;;;;10.20;6.20;;;16.10;48.80;;;;;;5030968;28;20486;-80
2021/06/10 02:39:07;;;;;;;10.25;5.70;;;16.20;49.20;;;;;;4992768;28;20391;-84
2021/06/10 02:41:35;;;;;;;9.60;6.13;;;16.00;49.70;;;;;;5023930;28;20469;-82
2021/06/10 02:44:01;;;;;;;12.88;6.18;;;16.10;49.10;;;;;;5010600;28;20460;-83
2021/06/10 02:46:29;;;;;;;12.20;6.43;;;16.10;49.60;;;;;;5030290;28;20385;-83
2021/06/10 02:48:56;;;;;;;9.43;5.85;;;16.00;50.50;;;;;;5005984;22;20392;-72
2021/06/10 02:51:26;;;;;;;11.27;6.20;;;16.00;50.90;;;;;;4993543;28;20411;-72
2021/06/10 02:53:53;;;;;;;9.02;6.57;;;16.10;51.00;;;;;;4993993;28;20452;-71
2021/06/10 02:56:20;;;;;;;10.35;6.93;;;16.00;51.40;;;;;;4994246;28;20481;-71
2021/06/10 02:58:48;;;;;;;11.88;6.30;;;15.90;52.10;;;;;;4993992;28;20379;-73
2021/06/10 03:01:14;;;;;;;11.10;6.72;;;15.80;52.60;;;;;;4993947;28;20907;-72
2021/06/10 03:03:42;;;;;;;13.43;6.55;;;15.80;53.20;;;;;;4993837;28;20801;-72
2021/06/10 03:06:08;;;;;;;8.15;6.45;;;15.70;53.70;;;;;;4992629;28;20402;-72
2021/06/10 03:08:35;;;;;;;10.88;6.95;;;15.70;54.20;;;;;;4987493;28;20891;-72
2021/06/10 03:11:03;;;;;;;13.32;7.32;;;15.60;54.80;;;;;;4978082;28;20890;-72
2021/06/10 03:13:31;;;;;;;9.00;6.85;;;15.60;55.30;;;;;;4993950;28;20449;-72
2021/06/10 03:15:58;;;;;;;11.10;6.90;;;15.60;55.70;;;;;;4994490;28;20393;-72
2021/06/10 03:18:24;;;;;;;10.70;7.20;;;15.60;56.00;;;;;;4993586;28;20394;-72
2021/06/10 03:20:50;;;;;;;14.52;7.70;;;15.70;56.60;;;;;;4993605;28;20779;-73
2021/06/10 03:23:16;;;;;;;11.07;7.27;;;15.80;54.90;;;;;;4993621;28;20850;-72
2021/06/10 03:25:42;;;;;;;13.87;7.50;;;15.90;55.10;;;;;;4993594;28;20441;-72
2021/06/10 03:28:08;;;;;;;10.05;7.18;;;15.80;54.90;;;;;;4991840;28;20410;-71
2021/06/10 03:30:35;;;;;;;11.93;7.57;;;15.90;55.60;;;;;;4993516;28;20393;-71
2021/06/10 03:33:03;;;;;;;15.00;7.43;;;15.90;55.70;;;;;;4993422;28;20460;-72
2021/06/10 03:35:30;;;;;;;9.15;7.10;;;15.80;56.80;;;;;;4995001;28;20395;-74
2021/06/10 03:37:56;;;;;;;12.68;7.60;;;15.70;57.80;;;;;;4986769;28;20398;-73
2021/06/10 03:40:22;;;;;;;10.68;6.60;;;15.60;58.40;;;;;;4993148;28;20394;-72
2021/06/10 03:42:50;;;;;;;11.95;7.50;;;15.50;59.30;;;;;;4992768;28;20441;-72
2021/06/10 03:45:16;;;;;;;13.40;7.90;;;15.60;59.60;;;;;;4992877;28;20393;-72
2021/06/10 03:47:44;;;;;;;13.75;8.25;;;15.60;60.20;;;;;;4992695;28;20409;-71
2021/06/10 03:50:10;;;;;;;13.98;10.15;;;15.60;59.70;;;;;;4992778;28;20398;-71
2021/06/10 03:52:36;;;;;;;12.27;9.07;;;15.70;59.90;;;;;;4992777;28;20414;-71
2021/06/10 03:55:05;;;;;;;14.20;10.70;;;15.60;60.70;;;;;;4992932;28;20406;-72
2021/06/10 03:57:32;;;;;;;14.30;10.68;;;15.60;61.40;;;;;;4992816;28;20799;-72
2021/06/10 03:59:58;;;;;;;13.18;9.70;;;15.50;62.00;;;;;;4992605;28;20405;-72
2021/06/10 04:02:24;;;;;;;12.37;9.77;;;15.50;62.60;;;;;;4991958;28;20390;-72
2021/06/10 04:04:49;;;;;;;13.10;10.03;;;15.50;62.50;;;;;;4992916;28;20807;-71
2021/06/10 04:07:15;;;;;;;13.33;9.80;;;15.60;61.90;;;;;;4992324;28;20394;-71
2021/06/10 04:09:41;;;;;;;17.00;10.60;;;15.60;61.40;;;;;;4977856;28;20454;-70
2021/06/10 04:12:07;;;;;;;19.10;10.27;;;15.70;60.90;;;;;;4985611;28;20414;-71
2021/06/10 04:14:34;;;;;;;13.85;10.40;;;15.80;59.90;;;;;;4993079;28;20863;-73
2021/06/10 04:16:59;;;;;;;14.77;10.10;;;15.80;60.20;;;;;;4993575;28;20741;-73
2021/06/10 04:19:25;;;;;;;13.57;9.30;;;15.90;61.50;;;;;;4993456;28;20390;-73
2021/06/10 04:21:51;;;;;;;15.33;9.50;;;15.90;61.50;;;;;;4993354;28;20626;-73
2021/06/10 04:24:16;;;;;;;11.73;8.93;;;16.10;59.80;;;;;;4993091;28;20408;-73
2021/06/10 04:26:42;;;;;;;14.25;9.27;;;16.10;60.30;;;;;;4992990;28;20405;-73
2021/06/10 04:29:07;;;;;;;12.10;8.73;;;16.20;60.10;;;;;;4992816;28;20863;-73
2021/06/10 04:31:33;;;;;;;14.80;9.17;;;16.20;59.50;;;;;;4992325;28;20398;-73
2021/06/10 04:33:59;;;;;;;18.60;9.90;;;16.30;59.20;;;;;;4992341;28;20414;-73
2021/06/10 04:36:25;;;;;;;13.43;10.43;;;16.60;56.20;;;;;;4992039;28;20398;-73
2021/06/10 04:38:51;;;;;;;14.15;10.10;;;16.60;56.50;;;;;;4992508;28;20382;-71
2021/06/10 04:41:17;;;;;;;13.40;10.33;;;16.60;56.80;;;;;;4992137;28;20502;-73
2021/06/10 04:43:43;;;;;;;13.90;10.45;;;16.50;57.80;;;;;;4991811;28;20402;-73
2021/06/10 04:46:09;;;;;;;16.17;11.00;;;16.60;57.70;;;;;;4991760;28;20476;-75
2021/06/10 04:48:36;;;;;;;21.70;12.93;;;16.60;57.90;;;;;;4991332;28;20430;-73
2021/06/10 04:51:03;;;;;;;14.82;11.00;;;16.70;57.30;;;;;;4991791;28;20461;-72
2021/06/10 04:53:28;;;;;;;18.05;12.32;;;16.70;57.40;;;;;;4991634;28;20415;-72
2021/06/10 04:55:54;;;;;;;21.15;12.40;;;16.70;57.30;;;;;;4992930;28;20383;-69
2021/06/10 04:58:19;;;;;;;16.77;11.85;;;16.80;56.90;;;;;;4990710;28;20394;-73
2021/06/10 05:00:45;;;;;;;17.67;12.50;;;16.90;56.40;;;;;;4991927;28;20393;-73
2021/06/10 05:03:11;;;;;;;16.67;11.83;;;17.00;56.00;;;;;;4991476;28;20396;-74
2021/06/10 05:05:39;;;;;;;23.80;17.17;;;17.10;55.90;;;;;;4991487;28;20430;-73
2021/06/10 05:08:04;;;;;;;132.48;90.60;;;17.20;54.20;;;;;;4989402;28;20803;-73
2021/06/10 05:10:30;;;;;;;55.73;37.67;;;17.30;54.40;;;;;;4980060;28;20409;-73
2021/06/10 05:12:55;;;;;;;19.97;16.43;;;17.40;53.90;;;;;;4990890;28;20407;-73
2021/06/10 05:15:21;;;;;;;63.63;45.13;;;17.50;52.90;;;;;;4990258;28;20910;-73
2021/06/10 05:17:47;;;;;;;42.40;30.52;;;17.60;53.00;;;;;;4991230;28;20490;-73
2021/06/10 05:20:13;;;;;;;45.43;32.00;;;17.70;52.00;;;;;;4991144;28;20422;-73
2021/06/10 05:22:39;;;;;;;24.05;17.98;;;17.80;51.50;;;;;;4991281;28;20481;-73
2021/06/10 05:25:05;;;;;;;22.80;15.70;;;17.90;50.20;;;;;;4990762;28;20906;-72
2021/06/10 05:27:33;;;;;;;23.67;16.00;;;18.00;49.30;;;;;;4990738;28;20867;-72
2021/06/10 05:29:59;;;;;;;30.50;20.63;;;18.10;48.70;;;;;;4990882;28;20410;-71
2021/06/10 05:32:24;;;;;;;27.00;16.13;;;18.20;48.30;;;;;;4990735;28;20464;-73
2021/06/10 05:34:50;;;;;;;16.45;12.40;;;18.30;48.20;;;;;;4991413;28;20882;-71
2021/06/10 05:37:15;;;;;;;18.15;12.80;;;18.40;47.10;;;;;;4985513;28;20516;-71
2021/06/10 05:39:41;;;;;;;19.80;15.10;;;18.50;46.50;;;;;;4971570;28;20492;-71
2021/06/10 05:42:07;;;;;;;21.00;14.90;;;18.60;45.30;;;;;;4988131;28;20493;-71
2021/06/10 05:44:32;;;;;;;21.17;12.77;;;18.70;44.90;;;;;;4991040;28;20402;-73
2021/06/10 05:46:58;;;;;;;14.95;12.63;;;18.80;44.60;;;;;;4990240;28;20398;-72
2021/06/10 05:49:24;;;;;;;15.43;11.50;;;18.90;44.10;;;;;;4990641;28;20545;-71
2021/06/10 05:51:49;;;;;;;18.65;12.82;;;19.00;43.40;;;;;;4973383;28;20395;-70
2021/06/10 05:54:15;;;;;;;18.93;12.00;;;19.10;41.80;;;;;;4990363;28;20897;-70
2021/06/10 05:56:41;;;;;;;29.80;18.50;;;19.20;41.40;;;;;;4990892;28;20989;-71
2021/06/10 05:59:06;;;;;;;40.00;26.73;;;19.20;41.20;;;;;;4991013;28;20390;-72
2021/06/10 06:01:32;;;;;;;20.37;13.33;;;19.40;40.90;;;;;;4991061;28;20401;-72
2021/06/10 06:03:57;;;;;;;17.37;12.90;;;19.50;39.70;;;;;;4990549;28;20405;-72
2021/06/10 06:06:23;;;;;;;15.70;11.65;;;19.60;39.80;;;;;;4990643;28;20398;-73
2021/06/10 06:08:49;;;;;;;20.33;12.00;;;19.70;39.40;;;;;;4983189;28;20392;-73
2021/06/10 06:11:16;;;;;;;19.30;11.37;;;19.70;38.70;;;;;;4990052;28;20402;-72
2021/06/10 06:13:47;;;;;;;17.02;11.18;;;19.90;38.70;;;;;;4991016;28;20883;-73
2021/06/10 06:16:18;;;;;;;16.77;11.65;;;20.00;38.30;;;;;;4990461;28;20449;-72
2021/06/10 06:18:45;;;;;;;18.27;11.40;;;20.10;37.90;;;;;;4990587;28;20386;-72
2021/06/10 06:21:12;;;;;;;19.00;11.48;;;20.10;37.30;;;;;;4990536;28;20414;-72
2021/06/10 06:23:38;;;;;;;24.67;11.82;;;20.20;36.00;;;;;;4990597;28;20792;-72
2021/06/10 06:26:03;;;;;;;16.95;10.60;;;20.20;33.40;;;;;;4991269;28;20394;-73
2021/06/10 06:28:29;;;;;;;20.27;10.75;;;20.40;31.90;;;;;;4994212;28;20394;-73
2021/06/10 06:30:55;;;;;;;16.15;10.90;;;20.50;32.40;;;;;;4994720;28;20779;-72
2021/06/10 06:33:21;;;;;;;17.80;10.80;;;20.60;33.00;;;;;;4993945;28;20413;-73
2021/06/10 06:35:48;;;;;;;20.60;10.90;;;20.60;31.50;;;;;;4994357;28;20399;-73
2021/06/10 06:38:13;;;;;;;25.20;12.33;;;20.70;31.50;;;;;;4983179;28;20763;-73
2021/06/10 06:40:39;;;;;;;18.10;10.93;;;20.70;30.50;;;;;;4993942;28;20386;-71
2021/06/10 06:43:06;;;;;;;14.57;10.40;;;20.70;30.40;;;;;;4993871;28;20382;-71
2021/06/10 06:45:33;;;;;;;18.73;10.55;;;20.80;30.70;;;;;;4994076;28;20398;-72
2021/06/10 06:47:59;;;;;;;19.03;10.70;;;20.90;30.50;;;;;;4994020;28;20487;-71
2021/06/10 06:50:25;;;;;;;17.93;10.33;;;21.10;30.10;;;;;;4993751;28;20748;-71
2021/06/10 06:52:50;;;;;;;20.30;11.10;;;21.20;28.30;;;;;;4993479;28;20513;-70
2021/06/10 06:55:16;;;;;;;17.63;11.00;;;21.20;27.60;;;;;;4994006;28;20820;-72
2021/06/10 06:57:42;;;;;;;16.10;10.40;;;21.30;26.90;;;;;;4993731;28;20397;-71
2021/06/10 07:00:08;;;;;;;16.35;9.88;;;21.50;26.60;;;;;;4994047;28;20798;-71
2021/06/10 07:02:34;;;;;;;20.20;11.20;;;21.70;27.00;;;;;;4993528;28;20437;-71
2021/06/10 07:04:59;;;;;;;23.80;11.20;;;21.70;25.80;;;;;;4993682;28;20417;-72
2021/06/10 07:07:25;;;;;;;20.70;10.25;;;21.80;25.80;;;;;;4993557;28;20791;-71
2021/06/10 07:09:50;;;;;;;17.57;10.00;;;21.80;25.20;;;;;;4993768;28;20753;-72
2021/06/10 07:12:16;;;;;;;29.75;13.93;;;21.80;24.70;;;;;;4993509;28;20437;-70
2021/06/10 07:14:43;;;;;;;14.27;10.40;;;21.80;24.80;;;;;;4993575;28;20395;-70
2021/06/10 07:17:08;;;;;;;20.00;10.70;;;22.00;24.90;;;;;;4993741;28;20387;-72
2021/06/10 07:19:34;;;;;;;12.60;9.97;;;22.10;24.70;;;;;;4993340;28;20398;-71
2021/06/10 07:22:00;;;;;;;20.10;9.55;;;22.10;25.20;;;;;;4993204;28;20405;-72
2021/06/10 07:24:25;;;;;;;17.57;9.50;;;22.20;24.20;;;;;;4993240;28;20541;-70
2021/06/10 07:26:51;;;;;;;14.05;9.10;;;22.20;22.40;;;;;;4992830;28;20498;-71
2021/06/10 07:29:18;;;;;;;16.33;9.27;;;22.40;21.20;;;;;;4993067;28;20394;-72
2021/06/10 07:31:44;;;;;;;12.10;8.30;;;22.50;20.90;;;;;;4992984;28;20736;-71
2021/06/10 07:34:10;;;;;;;14.70;7.50;;;22.40;21.10;;;;;;4993054;28;20469;-71
2021/06/10 07:36:36;;;;;;;18.43;7.53;;;22.50;20.90;;;;;;4991834;28;20862;-71
2021/06/10 07:39:04;;;;;;;13.98;7.60;;;22.60;20.30;;;;;;4973555;28;20423;-71
2021/06/10 07:41:30;;;;;;;17.80;6.80;;;22.50;20.20;;;;;;4973773;28;20395;-72
2021/06/10 07:43:56;;;;;;;10.98;6.95;;;22.50;20.00;;;;;;4973491;28;20870;-71
2021/06/10 07:46:21;;;;;;;15.90;7.63;;;22.60;20.00;;;;;;4973004;28;20396;-72
2021/06/10 07:48:47;;;;;;;13.73;8.20;;;22.70;19.80;;;;;;4987552;28;20410;-71
2021/06/10 07:51:13;;;;;;;10.88;7.53;;;22.70;19.00;;;;;;4992554;28;20462;-70
2021/06/10 07:53:39;;;;;;;13.73;7.70;;;22.70;18.80;;;;;;4992677;28;20406;-70
2021/06/10 07:56:05;;;;;;;13.85;7.20;;;22.80;19.20;;;;;;4992891;28;20437;-69
2021/06/10 07:58:32;;;;;;;12.40;8.02;;;23.10;18.80;;;;;;4992402;28;20426;-69
2021/06/10 08:00:59;;;;;;;15.60;8.50;;;23.20;18.60;;;;;;4984215;28;20415;-70
2021/06/10 08:03:25;;;;;;;9.85;7.50;;;23.40;18.40;;;;;;4992255;28;20398;-71
2021/06/10 08:05:51;;;;;;;15.68;8.60;;;23.40;18.60;;;;;;4992493;28;20409;-71
2021/06/10 08:08:17;;;;;;;11.95;7.80;;;23.60;18.30;;;;;;4992236;28;20398;-71
2021/06/10 08:10:45;;;;;;;10.67;7.53;;;23.50;17.60;;;;;;4991918;28;20465;-71
2021/06/10 08:13:11;;;;;;;11.02;7.78;;;23.60;17.70;;;;;;4992379;28;20410;-71
2021/06/10 08:15:37;;;;;;;10.25;7.03;;;23.60;17.80;;;;;;4992110;28;20405;-69
2021/06/10 08:18:03;;;;;;;11.35;7.13;;;23.70;17.40;;;;;;4992833;28;20378;-76
2021/06/10 08:20:30;;;;;;;13.18;6.72;;;23.70;17.40;;;;;;4992204;28;20760;-71
2021/06/10 08:22:59;;;;;;;10.55;6.78;;;23.60;16.80;;;;;;4992463;28;20766;-72
2021/06/10 08:25:27;;;;;;;8.32;6.10;;;23.70;16.20;;;;;;4992523;28;20419;-72
2021/06/10 08:27:53;;;;;;;11.10;7.00;;;23.70;16.30;;;;;;4991759;28;20393;-71
2021/06/10 08:30:19;;;;;;;10.37;5.20;;;23.70;16.90;;;;;;4992355;28;20410;-71
2021/06/10 08:32:45;;;;;;;7.65;5.03;;;23.70;15.20;;;;;;4992139;28;20979;-71
2021/06/10 08:35:12;;;;;;;9.65;5.30;;;23.70;14.80;;;;;;4990221;28;21493;-71
2021/06/10 08:37:38;;;;;;;8.45;4.25;;;23.80;14.60;;;;;;4982974;28;20433;-71
2021/06/10 08:40:08;;;;;;;6.40;4.50;;;23.80;15.20;;;;;;4971315;28;20527;-72
2021/06/10 08:42:36;;;;;;;6.03;4.40;;;23.90;15.30;;;;;;4974151;28;20772;-73
2021/06/10 08:45:07;;;;;;;10.70;5.63;;;23.90;15.00;;;;;;4991661;28;20406;-72
2021/06/10 08:47:35;;;;;;;8.68;5.43;;;23.90;14.40;;;;;;4991217;28;20405;-72
2021/06/10 08:50:03;;;;;;;6.87;5.00;;;23.90;14.30;;;;;;5013021;23;20492;-73
2021/06/10 08:52:29;;;;;;;8.17;5.17;;;24.00;14.80;;;;;;5011675;28;20415;-76
2021/06/10 08:54:54;;;;;;;6.68;4.70;;;24.20;14.40;;;;;;4990957;28;20402;-77
2021/06/10 08:57:20;;;;;;;8.13;5.50;;;24.20;14.20;;;;;;5011108;28;20824;-74
2021/06/10 08:59:46;;;;;;;14.32;5.50;;;24.20;14.20;;;;;;5011677;28;20419;-74
2021/06/10 09:02:11;;;;;;;7.63;5.17;;;24.20;13.90;;;;;;5011296;28;20424;-74
2021/06/10 09:04:37;;;;;;;7.78;5.53;;;24.30;14.60;;;;;;4993478;28;20747;-74
2021/06/10 09:07:04;;;;;;;8.02;5.30;;;24.20;14.30;;;;;;5010534;28;20465;-74
2021/06/10 09:09:36;;;;;;;13.23;4.70;;;24.20;13.60;;;;;;4989896;28;20488;-75
2021/06/10 09:12:06;;;;;;;8.90;6.05;;;24.20;14.90;;;;;;5007786;28;20389;-75
2021/06/10 09:14:51;;;;;;;9.13;5.90;;;24.30;13.70;;;;;;5010831;28;20388;-74
2021/06/10 09:17:27;;;;;;;6.55;5.20;;;24.50;13.90;;;;;;5009319;28;20789;-74
2021/06/10 09:19:53;;;;;;;6.78;4.90;;;24.50;14.40;;;;;;5011439;28;20467;-75
2021/06/10 09:22:19;;;;;;;5.70;4.13;;;24.60;14.20;;;;;;4991327;28;20452;-75
2021/06/10 09:24:45;;;;;;;11.50;5.40;;;24.70;14.50;;;;;;4992987;28;20393;-75
2021/06/10 09:27:13;;;;;;;8.60;5.10;;;24.70;14.10;;;;;;5011206;28;20746;-75
2021/06/10 09:29:43;;;;;;;12.75;5.93;;;24.80;14.30;;;;;;5010149;28;20410;-75
2021/06/10 09:32:13;;;;;;;7.37;5.40;;;24.80;14.10;;;;;;4992786;28;20408;-76
2021/06/10 09:34:55;;;;;;;8.02;6.75;;;25.10;13.70;;;;;;4990683;28;20761;-74
2021/06/10 09:37:39;;;;;;;8.40;6.40;;;24.80;13.70;;;;;;4978645;28;20409;-77
2021/06/10 09:40:08;;;;;;;13.27;5.75;;;24.50;14.20;;;;;;5010549;28;20777;-74
2021/06/10 09:42:38;;;;;;;7.93;5.50;;;24.50;14.90;;;;;;5011245;28;20439;-76
2021/06/10 09:45:08;;;;;;;9.40;6.60;;;24.80;14.50;;;;;;5002724;28;20489;-74
2021/06/10 09:47:36;;;;;;;8.57;5.70;;;24.90;13.70;;;;;;5011043;28;20795;-77
2021/06/10 09:50:26;;;;;;;8.48;5.82;;;24.90;13.90;;;;;;5010955;28;20546;-76
2021/06/10 09:53:04;;;;;;;7.90;6.00;;;25.00;13.20;;;;;;5009987;28;20412;-75
2021/06/10 09:55:34;;;;;;;11.32;5.50;;;25.10;13.10;;;;;;5011056;28;20754;-76
2021/06/10 09:58:25;;;;;;;7.68;5.20;;;25.10;13.20;;;;;;5013702;28;20381;-75
2021/06/10 10:01:00;;;;;;;9.73;5.10;;;25.10;13.10;;;;;;5011371;28;20396;-76
2021/06/10 10:03:25;;;;;;;9.35;5.68;;;25.20;13.50;;;;;;5016397;28;20431;-75
2021/06/10 10:05:52;;;;;;;7.53;5.30;;;25.20;13.10;;;;;;5016222;28;20864;-75
2021/06/10 10:08:18;;;;;;;12.63;5.20;;;25.00;13.40;;;;;;5012748;28;20417;-75
2021/06/10 10:10:44;;;;;;;8.75;5.70;;;25.00;13.80;;;;;;4998696;28;20872;-76
2021/06/10 10:13:18;;;;;;;8.07;5.20;;;25.00;13.20;;;;;;5020069;28;20462;-75
2021/06/10 10:15:44;;;;;;;6.70;4.50;;;25.10;14.10;;;;;;5018449;28;20380;-75
2021/06/10 10:18:10;;;;;;;5.53;4.85;;;24.90;13.80;;;;;;5018445;28;20392;-75
2021/06/10 10:20:38;;;;;;;10.18;4.38;;;24.80;14.50;;;;;;5012834;28;20424;-75
2021/06/10 10:23:07;;;;;;;10.05;7.50;;;24.90;14.20;;;;;;5014049;28;20435;-76
2021/06/10 10:25:34;;;;;;;6.78;5.00;;;25.00;13.40;;;;;;5015070;28;20435;-76
2021/06/10 10:28:00;;;;;;;7.80;4.75;;;25.10;13.90;;;;;;5017064;28;20443;-75
2021/06/10 10:30:27;;;;;;;9.10;5.75;;;25.30;14.00;;;;;;4997976;28;20401;-74
2021/06/10 10:32:52;;;;;;;8.02;5.70;;;25.30;13.70;;;;;;5017564;28;20916;-76
2021/06/10 10:35:21;;;;;;;6.32;5.72;;;25.20;13.80;;;;;;5005722;28;20450;-74
2021/06/10 10:37:47;;;;;;;5.35;4.82;;;25.10;13.80;;;;;;5012600;28;20412;-74
2021/06/10 10:40:31;;;;;;;10.23;5.18;;;25.10;14.60;;;;;;5014087;28;20415;-76
2021/06/10 10:43:11;;;;;;;7.20;4.38;;;25.40;13.30;;;;;;4991848;28;20409;-77
2021/06/10 10:45:36;;;;;;;6.95;4.70;;;25.50;13.60;;;;;;5017232;28;20401;-77
2021/06/10 10:50:36;;;;;;;9.00;4.68;;;25.80;13.20;;;;;;5017167;28;20404;-76
2021/06/10 10:53:03;;;;;;;7.95;4.60;;;25.90;12.20;;;;;;5001316;28;20409;-77
2021/06/10 10:55:30;;;;;;;6.13;5.25;;;25.80;13.20;;;;;;5000189;28;20425;-76
2021/06/10 10:58:29;;;;;;;8.15;4.50;;;25.40;13.80;;;;;;5000162;28;20393;-77
2021/06/10 11:01:00;;;;;;;8.50;4.13;;;25.40;13.50;;;;;;4975284;28;20439;-78
2021/06/10 11:03:33;;;;;;;9.02;4.72;;;25.80;13.30;;;;;;5000312;28;20389;-77
2021/06/10 11:06:20;;;;;;;8.27;4.60;;;26.10;13.00;;;;;;5022058;28;20393;-77
2021/06/10 11:09:12;;;;;;;5.57;4.40;;;26.30;11.70;;;;;;5003443;28;20445;-77
2021/06/10 11:11:51;;;;;;;6.03;3.83;;;26.40;11.30;;;;;;4987811;28;20902;-77
2021/06/10 11:14:38;;;;;;;6.00;4.80;;;26.40;11.80;;;;;;5001162;28;20467;-76
2021/06/10 11:17:32;;;;;;;12.33;4.63;;;26.50;11.20;;;;;;4984461;28;20393;-77
2021/06/10 11:20:06;;;;;;;5.70;4.20;;;26.50;10.80;;;;;;4997420;28;20394;-77
2021/06/10 11:22:38;;;;;;;8.73;4.50;;;26.50;10.90;;;;;;5018936;28;20389;-78
2021/06/10 11:25:10;;;;;;;7.78;3.90;;;26.80;10.60;;;;;;5027237;28;20403;-77
2021/06/10 11:27:41;;;;;;;5.50;3.50;;;26.80;9.50;;;;;;5005978;28;20416;-76
2021/06/10 11:30:13;;;;;;;8.20;4.18;;;27.10;10.30;;;;;;5021136;28;20381;-77
2021/06/10 11:32:59;;;;;;;6.97;4.40;;;27.20;10.00;;;;;;5000962;28;20416;-78
2021/06/10 11:35:29;;;;;;;4.78;4.38;;;27.20;10.50;;;;;;5020356;28;20383;-77
2021/06/10 11:38:00;;;;;;;7.50;4.57;;;27.10;10.20;;;;;;5018850;28;20397;-77
2021/06/10 11:40:25;;;;;;;6.65;4.85;;;27.10;10.70;;;;;;5012797;28;20823;-76
2021/06/10 11:42:51;;;;;;;7.22;4.95;;;27.10;10.90;;;;;;5008886;28;20428;-76
2021/06/10 11:45:28;;;;;;;6.97;4.85;;;27.10;11.10;;;;;;5000794;28;20770;-77
2021/06/10 11:47:54;;;;;;;4.90;4.20;;;27.30;11.20;;;;;;5015015;28;20397;-77
2021/06/10 11:50:27;;;;;;;6.32;4.00;;;27.60;8.80;;;;;;5018761;28;20404;-77
2021/06/10 11:53:02;;;;;;;10.07;4.90;;;27.70;8.70;;;;;;5018861;28;20428;-77
2021/06/10 11:55:29;;;;;;;5.00;4.60;;;27.90;8.50;;;;;;5017415;28;20385;-77
2021/06/10 11:57:58;;;;;;;5.40;4.70;;;28.30;8.50;;;;;;5016459;28;20499;-77
2021/06/10 12:00:34;;;;;;;7.63;4.57;;;28.60;8.50;;;;;;5014875;28;20381;-76
2021/06/10 12:03:01;;;;;;;7.40;4.80;;;28.20;8.20;;;;;;4992403;28;20487;-77
2021/06/10 12:05:31;;;;;;;9.37;5.30;;;27.40;9.20;;;;;;5006485;28;20663;-77
2021/06/10 12:08:25;;;;;;;4.88;4.47;;;27.20;9.70;;;;;;5017124;28;20400;-77
2021/06/10 12:11:20;;;;;;;9.38;4.90;;;27.20;9.30;;;;;;4993149;28;20404;-77
2021/06/10 12:13:51;;;;;;;4.90;4.50;;;27.40;8.70;;;;;;4996236;28;20409;-75
2021/06/10 12:16:19;;;;;;;4.80;4.40;;;27.70;8.60;;;;;;5013619;28;20393;-76
2021/06/10 12:18:47;;;;;;;4.80;4.30;;;28.10;8.70;;;;;;5014452;28;20396;-78
2021/06/10 12:21:18;;;;;;;5.05;4.55;;;28.50;7.00;;;;;;5020907;28;20869;-77
2021/06/10 12:23:49;;;;;;;6.10;4.10;;;28.70;7.70;;;;;;5012784;28;20411;-77
2021/06/10 12:26:17;;;;;;;5.80;4.70;;;28.70;7.50;;;;;;5011030;28;20430;-77
2021/06/10 12:28:52;;;;;;;4.82;4.40;;;28.80;7.70;;;;;;5011318;28;20610;-76
2021/06/10 12:31:22;;;;;;;4.70;4.40;;;28.60;6.40;;;;;;5012951;28;20396;-77
2021/06/10 12:34:05;;;;;;;6.10;4.40;;;28.50;7.70;;;;;;5012871;28;20840;-75
2021/06/10 12:36:36;;;;;;;6.80;4.80;;;28.70;7.50;;;;;;5012696;28;20384;-76
2021/06/10 12:39:01;;;;;;;5.30;4.80;;;28.30;7.50;;;;;;4992324;28;20414;-75
2021/06/10 12:41:33;;;;;;;6.17;4.93;;;27.70;9.20;;;;;;4987628;28;20903;-75
2021/06/10 12:44:07;;;;;;;7.28;4.43;;;27.70;9.50;;;;;;5005475;28;20403;-77
2021/06/10 12:46:52;;;;;;;4.97;4.20;;;28.00;7.00;;;;;;5012004;28;20453;-76
2021/06/10 12:49:39;;;;;;;8.47;4.10;;;28.50;6.40;;;;;;5010888;28;20868;-76